Time;durP1;ratioP1;P1;durP2;ratioP2;P2;SDS_P1;SDS_P2;PMS_P1;PMS_P2;Temp;Humidity;BMP_temperature;BMP_pressure;BME280_temperature;BME280_humidity;BME280_pressure;Samples;Min_cycle;Max_cycle;Signal;HPM_P1;HPM_P2
2023/08/18 00:00:06;;;;;;;23.35;21.60;;;16.80;91.70;;;;;;5094125;28;20182;-91
2023/08/18 00:02:33;;;;;;;23.75;21.90;;;16.80;91.80;;;;;;5092455;28;20198;-90
2023/08/18 00:04:58;;;;;;;24.05;21.88;;;16.80;91.80;;;;;;5093631;28;20642;-90
2023/08/18 00:07:24;;;;;;;24.42;22.42;;;16.80;91.90;;;;;;5094167;28;20171;-90
2023/08/18 00:09:49;;;;;;;24.90;22.45;;;16.80;92.00;;;;;;5093906;28;20670;-91
2023/08/18 00:12:15;;;;;;;24.58;22.65;;;16.80;92.00;;;;;;5094046;28;20699;-90
2023/08/18 00:14:40;;;;;;;47.97;44.43;;;16.80;92.10;;;;;;5092246;28;20728;-90
2023/08/18 00:17:06;;;;;;;49.90;46.28;;;16.80;92.10;;;;;;5093333;28;20202;-90
2023/08/18 00:19:31;;;;;;;46.97;43.60;;;16.80;92.10;;;;;;5093694;28;20173;-90
2023/08/18 00:21:57;;;;;;;27.05;24.80;;;16.80;92.20;;;;;;5094056;28;20543;-90
2023/08/18 00:24:24;;;;;;;26.35;24.48;;;16.90;92.20;;;;;;5093554;28;20706;-90
2023/08/18 00:26:49;;;;;;;26.65;24.63;;;16.80;92.30;;;;;;5093661;28;20166;-90
2023/08/18 00:29:15;;;;;;;27.73;25.58;;;16.80;92.30;;;;;;5093487;28;20194;-89
2023/08/18 00:31:40;;;;;;;27.63;25.60;;;16.80;92.30;;;;;;5093474;28;20692;-90
2023/08/18 00:34:06;;;;;;;28.73;26.45;;;16.80;92.40;;;;;;5092165;28;20265;-89
2023/08/18 00:36:32;;;;;;;27.75;25.77;;;16.80;92.40;;;;;;5093576;28;20225;-90
2023/08/18 00:38:58;;;;;;;27.05;25.10;;;16.80;92.40;;;;;;5093584;28;20175;-90
2023/08/18 00:41:27;;;;;;;28.08;25.65;;;16.80;92.50;;;;;;5093744;28;20198;-90
2023/08/18 00:43:52;;;;;;;28.85;26.70;;;16.80;92.50;;;;;;5092355;28;20189;-90
2023/08/18 00:46:19;;;;;;;28.70;26.05;;;16.80;92.50;;;;;;5093630;28;20195;-91
2023/08/18 00:48:44;;;;;;;28.48;26.38;;;16.80;92.60;;;;;;5093660;28;20246;-91
2023/08/18 00:51:11;;;;;;;29.73;27.38;;;16.80;92.60;;;;;;5093887;28;20591;-89
2023/08/18 00:53:39;;;;;;;29.33;26.98;;;16.80;92.60;;;;;;5093732;28;20181;-90
2023/08/18 00:56:06;;;;;;;28.35;26.02;;;16.80;92.60;;;;;;5091999;28;20776;-90
2023/08/18 00:58:32;;;;;;;29.38;27.02;;;16.80;92.60;;;;;;5091989;28;20210;-90
2023/08/18 01:00:58;;;;;;;29.65;27.20;;;16.80;92.60;;;;;;5092244;28;20166;-89
2023/08/18 01:03:24;;;;;;;30.42;27.45;;;16.80;92.60;;;;;;5093342;28;20163;-90
2023/08/18 01:05:49;;;;;;;28.67;26.00;;;16.80;92.60;;;;;;5093784;28;20331;-91
2023/08/18 01:08:15;;;;;;;29.70;27.30;;;16.80;92.60;;;;;;5092067;28;20210;-89
2023/08/18 01:11:05;;;;;;;29.88;27.40;;;16.80;92.60;;;;;;5093007;28;20265;-90
2023/08/18 01:13:49;;;;;;;30.30;27.30;;;16.80;92.60;;;;;;5093487;28;20638;-90
2023/08/18 01:16:21;;;;;;;28.80;26.42;;;16.80;92.70;;;;;;5091951;28;20721;-89
2023/08/18 01:18:47;;;;;;;29.75;26.95;;;16.80;92.70;;;;;;5092732;28;20190;-90
2023/08/18 01:21:16;;;;;;;28.20;26.08;;;16.80;92.70;;;;;;5093017;28;20178;-90
2023/08/18 01:23:41;;;;;;;28.45;26.02;;;16.80;92.70;;;;;;5091655;28;20167;-90
2023/08/18 01:26:07;;;;;;;29.40;26.98;;;16.80;92.70;;;;;;5092873;28;20187;-90
2023/08/18 01:28:36;;;;;;;28.90;26.73;;;16.80;92.70;;;;;;5096012;28;20186;-90
2023/08/18 01:31:11;;;;;;;29.80;27.20;;;16.80;92.70;;;;;;5095423;28;20178;-90
2023/08/18 01:34:00;;;;;;;29.40;27.10;;;16.80;92.70;;;;;;5096560;28;20163;-90
2023/08/18 01:36:30;;;;;;;27.35;25.25;;;16.80;92.70;;;;;;5096077;28;20166;-89
2023/08/18 01:38:56;;;;;;;30.15;27.35;;;16.80;92.70;;;;;;5096267;28;20230;-90
2023/08/18 01:41:24;;;;;;;28.67;26.38;;;16.70;92.60;;;;;;5095177;28;20195;-89
2023/08/18 01:43:51;;;;;;;27.42;25.33;;;16.80;92.70;;;;;;5096258;28;20169;-90
2023/08/18 01:46:16;;;;;;;29.30;26.95;;;16.70;92.60;;;;;;5096140;28;20194;-90
2023/08/18 01:48:42;;;;;;;27.98;26.00;;;16.70;92.60;;;;;;5096217;28;20179;-90
2023/08/18 01:51:08;;;;;;;27.58;25.70;;;16.70;92.60;;;;;;5095242;28;20265;-89
2023/08/18 01:53:33;;;;;;;28.13;25.90;;;16.70;92.60;;;;;;5094914;28;20601;-89
2023/08/18 01:56:05;;;;;;;28.80;26.55;;;16.70;92.60;;;;;;5096387;28;20251;-90
2023/08/18 01:58:31;;;;;;;29.27;26.65;;;16.70;92.60;;;;;;5096031;28;20213;-90
2023/08/18 02:00:57;;;;;;;52.53;48.95;;;16.70;92.60;;;;;;5096046;28;20163;-90
2023/08/18 02:03:24;;;;;;;56.00;52.05;;;16.70;92.60;;;;;;5094727;28;20198;-89
2023/08/18 02:05:52;;;;;;;63.50;58.88;;;16.80;92.60;;;;;;5096303;28;20291;-90
2023/08/18 02:08:18;;;;;;;29.13;26.70;;;16.70;92.60;;;;;;5094654;28;20174;-89
2023/08/18 02:10:44;;;;;;;28.60;26.23;;;16.70;92.60;;;;;;5095883;28;20200;-89
2023/08/18 02:13:09;;;;;;;28.15;26.10;;;16.70;92.60;;;;;;5095854;28;20551;-89
2023/08/18 02:15:35;;;;;;;29.33;26.83;;;16.80;92.60;;;;;;5095623;28;20202;-90
2023/08/18 02:18:00;;;;;;;28.98;26.77;;;16.70;92.60;;;;;;5094602;28;20201;-89
2023/08/18 02:20:26;;;;;;;28.65;26.35;;;16.70;92.70;;;;;;5095559;28;20167;-90
2023/08/18 02:22:51;;;;;;;28.60;26.48;;;16.70;92.70;;;;;;5095798;28;20178;-90
2023/08/18 02:25:17;;;;;;;28.55;26.50;;;16.70;92.80;;;;;;5095398;28;20195;-89
2023/08/18 02:27:43;;;;;;;28.80;26.70;;;16.70;92.80;;;;;;5095604;28;20175;-89
2023/08/18 02:30:09;;;;;;;28.13;25.92;;;16.70;92.80;;;;;;5094195;28;20658;-90
2023/08/18 02:32:34;;;;;;;29.77;27.25;;;16.70;92.80;;;;;;5095337;28;20220;-90
2023/08/18 02:35:01;;;;;;;29.13;26.92;;;16.70;92.80;;;;;;5095158;28;20198;-90
2023/08/18 02:37:27;;;;;;;30.27;27.90;;;16.70;92.90;;;;;;5095022;28;20198;-89
2023/08/18 02:39:52;;;;;;;28.83;26.60;;;16.70;92.90;;;;;;5094551;28;20197;-89
2023/08/18 02:42:19;;;;;;;30.17;27.73;;;16.70;92.90;;;;;;5095076;28;20542;-89
2023/08/18 02:44:45;;;;;;;29.77;27.20;;;16.70;93.00;;;;;;5095393;28;20543;-90
2023/08/18 02:47:13;;;;;;;28.52;26.55;;;16.70;93.00;;;;;;5093792;28;20171;-89
2023/08/18 02:49:38;;;;;;;30.08;27.80;;;16.70;93.00;;;;;;5093981;28;20560;-89
2023/08/18 02:52:04;;;;;;;29.83;27.40;;;16.70;93.10;;;;;;5094982;28;20175;-89
2023/08/18 02:54:30;;;;;;;30.42;27.92;;;16.70;93.10;;;;;;5094838;28;20592;-89
2023/08/18 02:56:55;;;;;;;30.08;27.73;;;16.70;93.10;;;;;;5094788;28;20551;-89
2023/08/18 02:59:21;;;;;;;29.77;27.85;;;16.70;93.10;;;;;;5094772;28;20159;-90
2023/08/18 03:01:47;;;;;;;30.27;28.23;;;16.70;93.20;;;;;;5093604;28;20261;-90
2023/08/18 03:04:15;;;;;;;29.77;27.73;;;16.60;93.20;;;;;;5093501;28;20175;-89
2023/08/18 03:06:41;;;;;;;30.20;27.85;;;16.50;93.10;;;;;;5093847;28;20194;-89
2023/08/18 03:09:07;;;;;;;31.98;29.42;;;16.60;93.20;;;;;;5094659;28;20167;-89
2023/08/18 03:11:33;;;;;;;32.13;29.58;;;16.50;93.20;;;;;;5094625;28;20543;-90
2023/08/18 03:13:58;;;;;;;32.85;30.38;;;16.50;93.20;;;;;;5093199;28;20179;-90
2023/08/18 03:16:24;;;;;;;57.60;53.97;;;16.40;93.20;;;;;;5094404;28;20177;-89
2023/08/18 03:18:49;;;;;;;60.60;56.45;;;16.40;93.30;;;;;;5093215;28;20202;-89
2023/08/18 03:21:15;;;;;;;64.78;60.80;;;16.40;93.30;;;;;;5093071;28;20178;-89
2023/08/18 03:23:40;;;;;;;32.55;30.33;;;16.30;93.40;;;;;;5094248;28;20174;-90
2023/08/18 03:26:06;;;;;;;35.35;32.58;;;16.30;93.50;;;;;;5094263;28;20210;-89
2023/08/18 03:28:38;;;;;;;35.67;32.85;;;16.30;93.50;;;;;;5092989;28;20685;-89
2023/08/18 03:31:06;;;;;;;34.83;32.45;;;16.30;93.60;;;;;;5094291;28;20208;-90
2023/08/18 03:33:32;;;;;;;37.00;34.50;;;16.30;93.60;;;;;;5094196;28;20721;-90
2023/08/18 03:35:58;;;;;;;37.03;34.33;;;16.30;93.70;;;;;;5093127;28;20201;-89
2023/08/18 03:38:24;;;;;;;35.25;32.75;;;16.20;93.70;;;;;;5094067;28;20198;-89
2023/08/18 03:40:55;;;;;;;36.58;33.97;;;16.20;93.70;;;;;;5092838;28;20167;-89
2023/08/18 03:43:21;;;;;;;36.15;33.70;;;16.20;93.70;;;;;;5094266;28;20151;-89
2023/08/18 03:45:47;;;;;;;38.67;35.35;;;16.00;93.70;;;;;;5092732;28;20289;-89
2023/08/18 03:48:12;;;;;;;37.78;35.25;;;16.00;93.80;;;;;;5092606;28;20171;-89
2023/08/18 03:50:38;;;;;;;39.10;35.50;;;15.90;93.80;;;;;;5093218;28;20183;-89
2023/08/18 03:53:03;;;;;;;39.83;36.45;;;15.90;93.80;;;;;;5092659;28;20232;-89
2023/08/18 03:55:29;;;;;;;40.35;37.28;;;15.90;93.90;;;;;;5094733;28;20297;-89
2023/08/18 03:57:54;;;;;;;37.75;35.13;;;15.90;93.90;;;;;;5094074;28;20194;-89
2023/08/18 04:00:20;;;;;;;38.97;36.38;;;15.80;93.90;;;;;;5093743;28;20166;-89
2023/08/18 04:02:45;;;;;;;39.83;36.92;;;15.80;93.90;;;;;;5093686;28;20194;-89
2023/08/18 04:05:12;;;;;;;38.95;36.17;;;15.70;93.90;;;;;;5092457;28;20665;-89
2023/08/18 04:07:37;;;;;;;41.30;38.38;;;15.70;94.00;;;;;;5093625;28;20259;-90
2023/08/18 04:10:03;;;;;;;41.72;38.67;;;15.70;94.00;;;;;;5093869;28;20221;-89
2023/08/18 04:12:28;;;;;;;40.03;37.10;;;15.60;94.10;;;;;;5092363;28;20808;-90
2023/08/18 04:14:54;;;;;;;38.83;35.58;;;15.60;94.20;;;;;;5092260;28;20199;-89
2023/08/18 04:17:19;;;;;;;38.92;36.03;;;15.70;94.20;;;;;;5093492;28;20202;-90
2023/08/18 04:19:45;;;;;;;39.97;36.85;;;15.70;94.20;;;;;;5093417;28;20235;-89
2023/08/18 04:22:10;;;;;;;41.80;38.42;;;15.60;94.30;;;;;;5092640;28;20181;-89
2023/08/18 04:24:36;;;;;;;40.92;37.78;;;15.60;94.40;;;;;;5093481;28;20186;-89
2023/08/18 04:27:01;;;;;;;41.22;37.85;;;15.70;94.50;;;;;;5093399;28;20181;-90
2023/08/18 04:29:27;;;;;;;39.58;36.22;;;15.80;94.50;;;;;;5093472;28;20174;-90
2023/08/18 04:31:53;;;;;;;40.70;37.45;;;15.80;94.60;;;;;;5093414;28;20178;-89
2023/08/18 04:34:19;;;;;;;41.72;38.05;;;15.90;94.70;;;;;;5092224;28;20206;-89
2023/08/18 04:36:45;;;;;;;41.03;37.53;;;16.00;94.80;;;;;;5091944;28;20178;-89
2023/08/18 04:39:11;;;;;;;39.65;36.17;;;16.10;94.80;;;;;;5092190;28;20197;-90
2023/08/18 04:41:37;;;;;;;41.03;37.72;;;16.20;94.90;;;;;;5093430;28;20189;-90
2023/08/18 04:44:03;;;;;;;41.92;38.42;;;16.20;94.90;;;;;;5093528;28;20509;-89
2023/08/18 04:46:29;;;;;;;40.58;37.45;;;16.20;94.90;;;;;;5091940;28;20232;-89
2023/08/18 04:48:55;;;;;;;41.20;38.00;;;16.30;94.90;;;;;;5092044;28;20646;-89
2023/08/18 04:51:20;;;;;;;42.80;39.03;;;16.30;94.90;;;;;;5093185;28;20186;-90
2023/08/18 04:53:46;;;;;;;40.83;37.13;;;16.30;94.90;;;;;;5092633;28;20173;-90
2023/08/18 04:56:11;;;;;;;39.67;36.67;;;16.30;94.90;;;;;;5091706;28;20267;-90
2023/08/18 04:58:37;;;;;;;42.28;38.50;;;16.40;94.90;;;;;;5093582;28;20202;-89
2023/08/18 05:01:04;;;;;;;40.67;37.03;;;16.40;95.00;;;;;;5091900;28;20266;-90
2023/08/18 05:03:29;;;;;;;41.28;38.08;;;16.50;95.00;;;;;;5096513;28;20201;-90
2023/08/18 05:06:08;;;;;;;43.40;39.67;;;16.50;94.90;;;;;;5097000;28;20186;-90
2023/08/18 05:08:35;;;;;;;42.08;38.78;;;16.50;94.90;;;;;;5095792;28;20688;-89
2023/08/18 05:11:06;;;;;;;42.85;39.42;;;16.50;94.90;;;;;;5095831;28;20186;-90
2023/08/18 05:13:32;;;;;;;44.53;40.80;;;16.60;94.90;;;;;;5096849;28;20171;-90
2023/08/18 05:16:00;;;;;;;40.80;36.90;;;16.70;94.90;;;;;;5096698;28;20195;-90
2023/08/18 05:18:25;;;;;;;40.70;37.47;;;16.70;94.90;;;;;;5095610;28;20198;-90
2023/08/18 05:20:51;;;;;;;42.85;39.35;;;16.70;94.80;;;;;;5096712;28;20174;-89
2023/08/18 05:23:17;;;;;;;41.73;37.93;;;16.70;94.80;;;;;;5096977;28;20188;-89
2023/08/18 05:25:47;;;;;;;43.22;39.55;;;16.80;94.70;;;;;;5095352;28;20235;-89
2023/08/18 05:28:14;;;;;;;42.33;38.95;;;16.80;94.70;;;;;;5096557;28;20171;-89
2023/08/18 05:30:44;;;;;;;44.08;40.08;;;16.80;94.60;;;;;;5096632;28;20585;-89
2023/08/18 05:33:10;;;;;;;42.13;38.55;;;16.80;94.60;;;;;;5096573;28;20163;-89
2023/08/18 05:35:35;;;;;;;43.22;38.95;;;16.90;94.60;;;;;;5095468;28;20194;-90
2023/08/18 05:38:01;;;;;;;64.75;59.40;;;16.90;94.50;;;;;;5096362;28;20562;-89
2023/08/18 05:40:26;;;;;;;65.35;59.85;;;16.80;94.40;;;;;;5096741;28;20198;-90
2023/08/18 05:42:52;;;;;;;42.95;39.05;;;16.90;94.40;;;;;;5096713;28;20209;-89
2023/08/18 05:45:17;;;;;;;42.13;38.35;;;16.90;94.30;;;;;;5096400;28;20667;-89
2023/08/18 05:47:43;;;;;;;43.03;38.88;;;16.90;94.30;;;;;;5095072;28;20705;-89
2023/08/18 05:50:11;;;;;;;64.07;58.72;;;17.00;94.30;;;;;;5096426;28;20178;-90
2023/08/18 05:52:37;;;;;;;65.75;60.70;;;17.00;94.20;;;;;;5096090;28;20232;-90
2023/08/18 05:55:04;;;;;;;41.45;38.10;;;17.10;94.20;;;;;;5096006;28;20677;-89
2023/08/18 05:57:30;;;;;;;42.80;39.25;;;17.10;94.20;;;;;;5095884;28;20198;-89
2023/08/18 05:59:55;;;;;;;43.92;40.10;;;17.10;94.10;;;;;;5095930;28;20223;-89
2023/08/18 06:02:21;;;;;;;44.33;40.22;;;17.20;94.10;;;;;;5095845;28;20536;-89
2023/08/18 06:04:52;;;;;;;43.45;39.67;;;17.20;94.00;;;;;;5096233;28;20189;-90
2023/08/18 06:07:18;;;;;;;43.00;39.35;;;17.30;94.00;;;;;;5094992;28;20242;-89
2023/08/18 06:09:44;;;;;;;42.78;38.83;;;17.30;93.90;;;;;;5094615;28;20220;-89
2023/08/18 06:12:09;;;;;;;43.70;39.58;;;17.30;93.90;;;;;;5095121;28;20170;-89
2023/08/18 06:14:35;;;;;;;43.67;39.85;;;17.30;93.80;;;;;;5094573;28;20190;-89
2023/08/18 06:17:00;;;;;;;43.95;39.70;;;17.30;93.70;;;;;;5095476;28;20167;-89
2023/08/18 06:19:26;;;;;;;44.28;40.05;;;17.40;93.70;;;;;;5095233;28;20170;-89
2023/08/18 06:21:52;;;;;;;45.78;42.15;;;17.40;93.60;;;;;;5094592;28;20208;-90
2023/08/18 06:24:17;;;;;;;46.00;42.10;;;17.40;93.60;;;;;;5094381;28;20187;-90
2023/08/18 06:26:43;;;;;;;46.22;41.72;;;17.50;93.60;;;;;;5094279;28;20552;-90
2023/08/18 06:29:08;;;;;;;48.60;44.40;;;17.50;93.50;;;;;;5095883;28;20185;-90
2023/08/18 06:31:34;;;;;;;48.38;43.85;;;17.50;93.50;;;;;;5095642;28;20213;-90
2023/08/18 06:33:59;;;;;;;45.30;41.47;;;17.60;93.50;;;;;;5096003;28;20532;-91
2023/08/18 06:36:25;;;;;;;47.33;43.20;;;17.60;93.40;;;;;;5095290;28;20171;-90
2023/08/18 06:38:50;;;;;;;47.40;43.58;;;17.60;93.40;;;;;;5096003;28;20207;-90
2023/08/18 06:41:16;;;;;;;48.15;43.85;;;17.60;93.30;;;;;;5095200;28;20167;-90
2023/08/18 06:43:42;;;;;;;49.50;45.30;;;17.70;93.30;;;;;;5095558;28;20192;-90
2023/08/18 06:46:07;;;;;;;47.95;44.15;;;17.70;93.30;;;;;;5095073;28;20565;-90
2023/08/18 06:48:33;;;;;;;50.25;45.00;;;17.80;93.30;;;;;;5095342;28;20175;-90
2023/08/18 06:50:58;;;;;;;49.63;45.70;;;17.80;93.30;;;;;;5095183;28;20170;-91
2023/08/18 06:53:24;;;;;;;49.03;44.90;;;17.80;93.30;;;;;;5094906;28;20183;-90
2023/08/18 06:55:49;;;;;;;49.95;45.45;;;17.80;93.20;;;;;;5095052;28;20305;-90
2023/08/18 06:58:15;;;;;;;50.88;46.55;;;17.80;93.20;;;;;;5094917;28;20735;-90
2023/08/18 07:00:40;;;;;;;52.35;47.80;;;17.90;93.20;;;;;;5094956;28;20647;-90
2023/08/18 07:03:06;;;;;;;52.10;47.38;;;17.80;93.20;;;;;;5093601;28;20174;-90
2023/08/18 07:05:31;;;;;;;52.97;48.17;;;17.90;93.10;;;;;;5094750;28;20561;-90
2023/08/18 07:07:57;;;;;;;53.58;49.00;;;17.80;93.00;;;;;;5095001;28;20186;-90
2023/08/18 07:10:23;;;;;;;52.75;48.38;;;17.80;93.00;;;;;;5094729;28;20182;-90
2023/08/18 07:12:48;;;;;;;52.70;48.17;;;17.90;93.00;;;;;;5095424;28;20175;-90
2023/08/18 07:15:14;;;;;;;53.85;49.17;;;17.90;92.90;;;;;;5094724;28;20569;-90
2023/08/18 07:17:39;;;;;;;54.15;49.75;;;18.00;93.00;;;;;;5094528;28;20240;-90
2023/08/18 07:20:09;;;;;;;54.38;49.50;;;18.00;93.00;;;;;;5094490;28;20171;-90
2023/08/18 07:22:35;;;;;;;53.75;48.92;;;18.10;93.00;;;;;;5093532;28;20176;-90
2023/08/18 07:25:00;;;;;;;53.40;48.50;;;18.00;92.90;;;;;;5094635;28;20186;-89
2023/08/18 07:27:26;;;;;;;52.55;47.97;;;18.00;92.80;;;;;;5093809;28;20166;-90
2023/08/18 07:29:52;;;;;;;52.58;48.22;;;18.10;92.80;;;;;;5094580;28;20314;-89
2023/08/18 07:32:17;;;;;;;53.05;48.92;;;18.10;92.80;;;;;;5094797;28;20177;-89
2023/08/18 07:34:43;;;;;;;51.30;46.92;;;18.20;92.80;;;;;;5094615;28;20191;-90
2023/08/18 07:37:09;;;;;;;49.33;44.77;;;18.20;92.70;;;;;;5094700;28;20201;-90
2023/08/18 07:39:35;;;;;;;50.03;45.85;;;18.20;92.60;;;;;;5093466;28;20187;-90
2023/08/18 07:42:00;;;;;;;49.67;45.42;;;18.20;92.40;;;;;;5094221;28;20642;-90
2023/08/18 07:44:26;;;;;;;49.10;44.78;;;18.20;92.40;;;;;;5094291;28;20666;-89
2023/08/18 07:46:51;;;;;;;49.03;44.88;;;18.30;92.40;;;;;;5094058;28;20177;-90
2023/08/18 07:49:17;;;;;;;49.22;44.88;;;18.30;92.30;;;;;;5094161;28;20169;-90
2023/08/18 07:51:43;;;;;;;48.80;44.92;;;18.30;92.30;;;;;;5093981;28;20175;-90
2023/08/18 07:54:09;;;;;;;48.30;44.20;;;18.40;92.30;;;;;;5094374;28;20166;-90
2023/08/18 07:56:34;;;;;;;48.15;44.22;;;18.50;92.30;;;;;;5093152;28;20186;-91
2023/08/18 07:59:01;;;;;;;49.95;45.70;;;18.50;92.00;;;;;;5093940;28;20281;-91
2023/08/18 08:01:27;;;;;;;48.25;43.95;;;18.50;92.00;;;;;;5093990;28;20167;-90
2023/08/18 08:03:54;;;;;;;74.95;69.32;;;18.50;91.90;;;;;;5093996;28;20181;-91
2023/08/18 08:06:20;;;;;;;75.28;69.70;;;18.50;91.80;;;;;;5093973;28;20186;-91
2023/08/18 08:08:46;;;;;;;79.75;73.35;;;18.60;91.90;;;;;;5093910;28;20171;-91
2023/08/18 08:11:13;;;;;;;44.97;40.97;;;18.60;91.70;;;;;;5093796;28;20171;-91
2023/08/18 08:13:39;;;;;;;46.35;42.20;;;18.60;91.60;;;;;;5093063;28;20809;-91
2023/08/18 08:16:05;;;;;;;68.25;63.38;;;18.60;91.60;;;;;;5092978;28;20194;-91
2023/08/18 08:18:33;;;;;;;70.97;65.70;;;18.70;91.50;;;;;;5094197;28;20669;-91
2023/08/18 08:21:00;;;;;;;70.53;65.38;;;18.70;91.50;;;;;;5093972;28;20180;-91
2023/08/18 08:23:26;;;;;;;42.45;39.17;;;18.80;91.40;;;;;;5094029;28;20174;-91
2023/08/18 08:25:51;;;;;;;45.03;41.13;;;18.80;91.40;;;;;;5093877;28;20182;-90
2023/08/18 08:28:17;;;;;;;69.90;64.80;;;18.80;91.30;;;;;;5093662;28;20231;-90
2023/08/18 08:30:44;;;;;;;70.40;65.22;;;18.80;91.20;;;;;;5093552;28;20171;-90
2023/08/18 08:33:11;;;;;;;43.30;39.47;;;18.90;91.20;;;;;;5093654;28;19941;-91
2023/08/18 08:35:36;;;;;;;44.85;40.55;;;18.90;91.00;;;;;;5093921;28;20190;-91
2023/08/18 08:38:02;;;;;;;45.08;41.22;;;19.00;90.90;;;;;;5096018;28;20198;-90
2023/08/18 08:40:27;;;;;;;43.10;39.40;;;19.00;90.90;;;;;;5097951;28;20163;-90
2023/08/18 08:42:54;;;;;;;44.45;40.67;;;19.00;90.80;;;;;;5096773;28;20646;-91
2023/08/18 08:45:20;;;;;;;42.63;39.03;;;19.10;90.90;;;;;;5097689;28;20198;-90
2023/08/18 08:47:47;;;;;;;44.97;41.22;;;19.10;90.80;;;;;;5096265;28;20176;-90
2023/08/18 08:50:16;;;;;;;43.08;39.30;;;19.20;90.80;;;;;;5097818;28;20170;-91
2023/08/18 08:52:44;;;;;;;44.28;40.33;;;19.20;90.50;;;;;;5097672;28;20182;-90
2023/08/18 08:55:12;;;;;;;44.13;40.20;;;19.20;90.60;;;;;;5097778;28;20245;-90
2023/08/18 08:57:37;;;;;;;44.72;41.03;;;19.30;90.50;;;;;;5097854;28;20673;-91
2023/08/18 09:00:04;;;;;;;43.95;39.95;;;19.30;90.30;;;;;;5097870;28;20173;-91
2023/08/18 09:02:29;;;;;;;42.53;38.95;;;19.40;90.20;;;;;;5097845;28;20728;-91
2023/08/18 09:05:00;;;;;;;41.47;37.65;;;19.50;90.00;;;;;;5096549;28;20239;-90
2023/08/18 09:07:26;;;;;;;40.30;37.03;;;19.50;89.90;;;;;;5096217;28;20170;-91
2023/08/18 09:09:52;;;;;;;41.13;37.55;;;19.50;89.60;;;;;;5096902;28;20711;-90
2023/08/18 09:12:18;;;;;;;40.80;37.47;;;19.60;89.70;;;;;;5097188;28;20253;-89
2023/08/18 09:14:43;;;;;;;40.90;37.33;;;19.70;89.60;;;;;;5097062;28;20190;-90
2023/08/18 09:17:09;;;;;;;39.63;36.45;;;19.70;89.50;;;;;;5097253;28;20202;-91
2023/08/18 09:19:35;;;;;;;39.92;36.55;;;19.80;89.30;;;;;;5097246;28;20588;-90
2023/08/18 09:22:04;;;;;;;39.13;35.67;;;19.80;89.40;;;;;;5096925;28;20163;-89
2023/08/18 09:24:32;;;;;;;38.33;35.13;;;19.70;88.90;;;;;;5096636;28;20222;-89
2023/08/18 09:27:09;;;;;;;39.42;35.92;;;19.70;88.90;;;;;;5096775;28;20250;-90
2023/08/18 09:29:36;;;;;;;40.30;36.70;;;19.70;88.80;;;;;;5096650;28;20170;-90
2023/08/18 09:32:02;;;;;;;53.10;49.10;;;19.80;89.00;;;;;;5095523;28;20178;-89
2023/08/18 09:34:30;;;;;;;63.95;58.78;;;19.80;88.70;;;;;;5095393;28;20190;-90
2023/08/18 09:36:56;;;;;;;64.43;58.97;;;19.90;89.00;;;;;;5097143;28;20174;-90
2023/08/18 09:39:24;;;;;;;38.35;34.88;;;20.00;88.80;;;;;;5096918;28;20212;-91
2023/08/18 09:41:51;;;;;;;35.00;31.85;;;20.20;88.70;;;;;;5097061;28;20182;-90
2023/08/18 09:44:17;;;;;;;34.58;31.77;;;20.30;88.60;;;;;;5097216;28;20186;-91
2023/08/18 09:46:56;;;;;;;31.67;28.98;;;20.60;88.60;;;;;;5097014;28;20195;-91
2023/08/18 09:49:23;;;;;;;33.67;30.45;;;20.50;87.40;;;;;;5096106;28;20276;-90
2023/08/18 09:52:01;;;;;;;35.40;32.30;;;20.60;87.50;;;;;;5095277;28;20166;-89
2023/08/18 09:54:28;;;;;;;34.92;31.95;;;20.40;86.90;;;;;;5095503;28;20682;-89
2023/08/18 09:57:02;;;;;;;33.85;30.73;;;20.40;87.10;;;;;;5094811;28;20630;-89
2023/08/18 09:59:31;;;;;;;36.53;33.28;;;20.40;87.00;;;;;;5095816;28;20309;-90
2023/08/18 10:01:58;;;;;;;34.08;31.23;;;20.50;87.50;;;;;;5096029;28;20301;-89
2023/08/18 10:04:25;;;;;;;33.63;30.75;;;20.60;87.30;;;;;;5095768;28;20244;-90
2023/08/18 10:06:54;;;;;;;33.40;30.42;;;20.70;87.40;;;;;;5096143;28;20170;-90
2023/08/18 10:09:22;;;;;;;35.17;31.70;;;20.70;87.10;;;;;;5095715;28;20249;-89
2023/08/18 10:11:49;;;;;;;34.65;31.80;;;20.60;86.80;;;;;;5095688;28;20516;-90
2023/08/18 10:14:17;;;;;;;35.28;32.40;;;20.70;86.80;;;;;;5094378;28;20227;-90
2023/08/18 10:16:45;;;;;;;37.20;33.60;;;20.70;86.50;;;;;;5095949;28;20195;-90
2023/08/18 10:19:10;;;;;;;34.95;32.05;;;20.70;87.00;;;;;;5095851;28;20456;-90
2023/08/18 10:21:36;;;;;;;34.25;31.25;;;20.70;86.90;;;;;;5096196;28;20646;-89
2023/08/18 10:24:03;;;;;;;34.08;30.73;;;20.90;86.90;;;;;;5094170;28;20262;-90
2023/08/18 10:26:29;;;;;;;31.27;28.53;;;21.20;87.00;;;;;;5096004;28;20191;-90
2023/08/18 10:29:13;;;;;;;32.72;29.65;;;21.20;86.30;;;;;;5095517;28;19904;-91
2023/08/18 10:31:48;;;;;;;29.58;27.17;;;21.70;86.60;;;;;;5094630;28;20591;-89
2023/08/18 10:34:21;;;;;;;29.95;27.55;;;22.00;85.90;;;;;;5095237;28;20159;-88
2023/08/18 10:36:46;;;;;;;29.08;26.35;;;22.20;85.20;;;;;;5094060;28;20179;-88
2023/08/18 10:39:26;;;;;;;31.48;28.77;;;22.10;83.90;;;;;;5094029;28;20685;-87
2023/08/18 10:42:07;;;;;;;32.00;29.42;;;21.90;84.00;;;;;;5095361;28;20170;-87
2023/08/18 10:44:33;;;;;;;32.58;29.70;;;21.80;83.80;;;;;;5093733;28;20609;-87
2023/08/18 10:47:23;;;;;;;31.02;28.30;;;21.90;84.40;;;;;;5095017;28;20258;-87
2023/08/18 10:49:48;;;;;;;30.70;28.00;;;22.20;84.80;;;;;;5094384;28;20221;-88
2023/08/18 10:52:14;;;;;;;32.50;29.20;;;22.30;84.00;;;;;;5094908;28;20646;-87
2023/08/18 10:54:40;;;;;;;31.08;28.45;;;22.30;82.90;;;;;;5094748;28;20241;-87
2023/08/18 10:57:06;;;;;;;29.15;26.77;;;22.40;82.90;;;;;;5094912;28;20167;-88
2023/08/18 10:59:31;;;;;;;31.08;27.95;;;22.60;83.20;;;;;;5094552;28;20218;-88
2023/08/18 11:01:57;;;;;;;30.52;27.83;;;22.70;82.50;;;;;;5094907;28;20621;-88
2023/08/18 11:04:23;;;;;;;46.67;43.10;;;22.80;83.10;;;;;;5093300;28;20240;-88
2023/08/18 11:06:50;;;;;;;32.83;30.05;;;22.70;82.50;;;;;;5094566;28;20307;-88
2023/08/18 11:09:16;;;;;;;35.20;32.45;;;22.80;82.40;;;;;;5093445;28;20189;-88
2023/08/18 11:11:42;;;;;;;30.40;27.65;;;22.70;81.80;;;;;;5094549;28;20597;-88
2023/08/18 11:14:07;;;;;;;30.60;27.85;;;22.70;82.50;;;;;;5093266;28;20171;-87
2023/08/18 11:16:36;;;;;;;31.17;28.48;;;22.70;81.80;;;;;;5094539;28;20292;-87
2023/08/18 11:19:04;;;;;;;45.55;41.72;;;22.60;82.40;;;;;;5093986;28;20199;-88
2023/08/18 11:21:30;;;;;;;46.70;43.25;;;22.80;83.20;;;;;;5093338;28;20186;-87
2023/08/18 11:23:56;;;;;;;30.75;28.27;;;22.80;82.30;;;;;;5093127;28;20206;-89
2023/08/18 11:26:21;;;;;;;28.48;26.10;;;22.90;82.60;;;;;;5094195;28;20235;-89
2023/08/18 11:28:47;;;;;;;28.70;26.40;;;23.10;82.30;;;;;;5093345;28;20175;-89
2023/08/18 11:31:13;;;;;;;43.85;40.75;;;23.10;81.60;;;;;;5092962;28;20627;-89
2023/08/18 11:33:39;;;;;;;43.63;40.15;;;23.20;81.50;;;;;;5094241;28;20171;-89
2023/08/18 11:36:05;;;;;;;30.00;27.40;;;23.40;81.40;;;;;;5092859;28;20198;-89
2023/08/18 11:38:31;;;;;;;30.70;28.40;;;23.20;81.40;;;;;;5093004;28;20302;-89
2023/08/18 11:40:58;;;;;;;30.45;27.90;;;23.20;82.10;;;;;;5093052;28;20605;-89
2023/08/18 11:43:24;;;;;;;29.67;27.25;;;23.20;81.70;;;;;;5093073;28;20623;-89
2023/08/18 11:45:51;;;;;;;29.63;26.80;;;23.40;82.40;;;;;;5094106;28;20194;-89
2023/08/18 11:48:20;;;;;;;30.23;27.70;;;23.50;81.50;;;;;;5093868;28;20227;-89
2023/08/18 11:50:45;;;;;;;28.90;26.50;;;23.60;80.60;;;;;;5093941;28;20282;-89
2023/08/18 11:53:11;;;;;;;28.55;25.85;;;23.70;80.90;;;;;;5092692;28;20259;-89
2023/08/18 11:55:43;;;;;;;28.80;26.38;;;23.80;80.50;;;;;;5092722;28;20214;-88
2023/08/18 11:58:14;;;;;;;28.52;26.27;;;23.90;80.70;;;;;;5092531;28;20201;-88
2023/08/18 12:00:41;;;;;;;29.40;26.77;;;24.00;80.40;;;;;;5092588;28;20274;-89
2023/08/18 12:03:22;;;;;;;28.80;26.52;;;23.90;79.60;;;;;;5094009;28;20175;-89
2023/08/18 12:05:47;;;;;;;27.33;24.95;;;24.00;80.20;;;;;;5093931;28;20644;-89
2023/08/18 12:08:13;;;;;;;29.67;27.08;;;24.20;79.80;;;;;;5092507;28;20218;-89
2023/08/18 12:10:38;;;;;;;27.70;25.45;;;24.10;79.30;;;;;;5093701;28;20181;-87
2023/08/18 12:13:04;;;;;;;28.25;26.05;;;24.20;79.40;;;;;;5091644;28;20178;-87
2023/08/18 12:15:30;;;;;;;30.02;27.55;;;24.20;79.20;;;;;;5092336;28;20243;-88
2023/08/18 12:17:55;;;;;;;28.92;26.67;;;24.00;78.60;;;;;;5092560;28;20634;-87
2023/08/18 12:20:23;;;;;;;30.88;28.38;;;24.00;78.70;;;;;;5092398;28;20561;-87
2023/08/18 12:22:49;;;;;;;28.42;26.00;;;24.10;79.30;;;;;;5093455;28;20249;-87
2023/08/18 12:25:15;;;;;;;27.52;25.38;;;23.90;79.60;;;;;;5092061;28;20190;-87